sensor_id;sensor_type;location;lat;lon;timestamp;temperature;humidity
59007;DHT22;44792;52.760;6.726;2024-03-22T00:00:21;10.00;99.90
59007;DHT22;44792;52.760;6.726;2024-03-22T00:02:47;10.10;99.90
59007;DHT22;44792;52.760;6.726;2024-03-22T00:05:13;10.10;99.90
59007;DHT22;44792;52.760;6.726;2024-03-22T00:07:38;10.10;99.90
59007;DHT22;44792;52.760;6.726;2024-03-22T00:10:06;10.20;99.90
59007;DHT22;44792;52.760;6.726;2024-03-22T00:12:32;10.10;99.90
59007;DHT22;44792;52.760;6.726;2024-03-22T00:14:57;10.20;99.90
59007;DHT22;44792;52.760;6.726;2024-03-22T00:17:23;10.20;99.90
59007;DHT22;44792;52.760;6.726;2024-03-22T00:19:49;10.20;99.90
59007;DHT22;44792;52.760;6.726;2024-03-22T00:22:14;10.20;99.90
59007;DHT22;44792;52.760;6.726;2024-03-22T00:24:41;10.20;99.90
59007;DHT22;44792;52.760;6.726;2024-03-22T00:27:07;10.20;99.90
59007;DHT22;44792;52.760;6.726;2024-03-22T00:29:32;10.20;99.90
59007;DHT22;44792;52.760;6.726;2024-03-22T00:31:58;10.20;99.90
59007;DHT22;44792;52.760;6.726;2024-03-22T00:34:24;10.20;99.90
59007;DHT22;44792;52.760;6.726;2024-03-22T00:36:49;10.20;99.90
59007;DHT22;44792;52.760;6.726;2024-03-22T00:39:16;10.30;99.90
59007;DHT22;44792;52.760;6.726;2024-03-22T00:41:42;10.30;99.90
59007;DHT22;44792;52.760;6.726;2024-03-22T00:44:08;10.30;99.90
59007;DHT22;44792;52.760;6.726;2024-03-22T00:46:34;10.30;99.90
59007;DHT22;44792;52.760;6.726;2024-03-22T00:49:01;10.30;99.90
59007;DHT22;44792;52.760;6.726;2024-03-22T00:51:26;10.30;99.90
59007;DHT22;44792;52.760;6.726;2024-03-22T00:53:52;10.30;99.90
59007;DHT22;44792;52.760;6.726;2024-03-22T00:56:18;10.30;99.90
59007;DHT22;44792;52.760;6.726;2024-03-22T00:58:44;10.30;99.90
59007;DHT22;44792;52.760;6.726;2024-03-22T01:01:10;10.30;99.90
59007;DHT22;44792;52.760;6.726;2024-03-22T01:03:35;10.30;99.90
59007;DHT22;44792;52.760;6.726;2024-03-22T01:06:05;10.40;99.90
59007;DHT22;44792;52.760;6.726;2024-03-22T01:08:32;10.30;99.90
59007;DHT22;44792;52.760;6.726;2024-03-22T01:10:58;10.30;99.90
59007;DHT22;44792;52.760;6.726;2024-03-22T01:13:26;10.30;99.90
59007;DHT22;44792;52.760;6.726;2024-03-22T01:15:52;10.30;99.90
59007;DHT22;44792;52.760;6.726;2024-03-22T01:18:18;10.30;99.90
59007;DHT22;44792;52.760;6.726;2024-03-22T01:20:43;10.40;99.90
59007;DHT22;44792;52.760;6.726;2024-03-22T01:23:09;10.40;99.90
59007;DHT22;44792;52.760;6.726;2024-03-22T01:25:35;10.40;99.90
59007;DHT22;44792;52.760;6.726;2024-03-22T01:28:01;10.40;99.90
59007;DHT22;44792;52.760;6.726;2024-03-22T01:30:27;10.40;99.90
59007;DHT22;44792;52.760;6.726;2024-03-22T01:32:54;10.40;99.90
59007;DHT22;44792;52.760;6.726;2024-03-22T01:35:20;10.40;99.90
59007;DHT22;44792;52.760;6.726;2024-03-22T01:37:46;10.40;99.90
59007;DHT22;44792;52.760;6.726;2024-03-22T01:40:13;10.40;99.90
59007;DHT22;44792;52.760;6.726;2024-03-22T01:42:38;10.40;99.90
59007;DHT22;44792;52.760;6.726;2024-03-22T01:45:05;10.40;99.90
59007;DHT22;44792;52.760;6.726;2024-03-22T01:47:31;10.40;99.90
59007;DHT22;44792;52.760;6.726;2024-03-22T01:49:57;10.40;99.90
59007;DHT22;44792;52.760;6.726;2024-03-22T01:52:22;10.40;99.90
59007;DHT22;44792;52.760;6.726;2024-03-22T01:54:49;10.40;99.90
59007;DHT22;44792;52.760;6.726;2024-03-22T01:57:15;10.40;99.90
59007;DHT22;44792;52.760;6.726;2024-03-22T01:59:41;10.40;99.90
59007;DHT22;44792;52.760;6.726;2024-03-22T02:02:07;10.40;99.90
59007;DHT22;44792;52.760;6.726;2024-03-22T02:04:33;10.40;99.90
59007;DHT22;44792;52.760;6.726;2024-03-22T02:06:58;10.40;99.90
59007;DHT22;44792;52.760;6.726;2024-03-22T02:09:25;10.40;99.90
59007;DHT22;44792;52.760;6.726;2024-03-22T02:11:51;10.40;99.90
59007;DHT22;44792;52.760;6.726;2024-03-22T02:14:17;10.50;99.90
59007;DHT22;44792;52.760;6.726;2024-03-22T02:16:42;10.50;99.90
59007;DHT22;44792;52.760;6.726;2024-03-22T02:19:08;10.50;99.90
59007;DHT22;44792;52.760;6.726;2024-03-22T02:21:34;10.50;99.90
59007;DHT22;44792;52.760;6.726;2024-03-22T02:24:00;10.50;99.90
59007;DHT22;44792;52.760;6.726;2024-03-22T02:26:26;10.50;99.90
59007;DHT22;44792;52.760;6.726;2024-03-22T02:28:52;10.50;99.90
59007;DHT22;44792;52.760;6.726;2024-03-22T02:31:17;10.50;99.90
59007;DHT22;44792;52.760;6.726;2024-03-22T02:33:45;10.50;99.90
59007;DHT22;44792;52.760;6.726;2024-03-22T02:36:11;10.50;99.90
59007;DHT22;44792;52.760;6.726;2024-03-22T02:38:37;10.60;99.90
59007;DHT22;44792;52.760;6.726;2024-03-22T02:41:02;10.50;99.90
59007;DHT22;44792;52.760;6.726;2024-03-22T02:43:28;10.50;99.90
59007;DHT22;44792;52.760;6.726;2024-03-22T02:45:54;10.50;99.90
59007;DHT22;44792;52.760;6.726;2024-03-22T02:48:19;10.60;99.90
59007;DHT22;44792;52.760;6.726;2024-03-22T02:50:45;10.50;99.90
59007;DHT22;44792;52.760;6.726;2024-03-22T02:53:11;10.60;99.90
59007;DHT22;44792;52.760;6.726;2024-03-22T02:55:38;10.60;99.90
59007;DHT22;44792;52.760;6.726;2024-03-22T02:58:04;10.60;99.90
59007;DHT22;44792;52.760;6.726;2024-03-22T03:00:31;10.60;99.90
59007;DHT22;44792;52.760;6.726;2024-03-22T03:02:56;10.60;99.90
59007;DHT22;44792;52.760;6.726;2024-03-22T03:05:22;10.60;99.90
59007;DHT22;44792;52.760;6.726;2024-03-22T03:07:51;10.60;99.90
59007;DHT22;44792;52.760;6.726;2024-03-22T03:10:17;10.60;99.90
59007;DHT22;44792;52.760;6.726;2024-03-22T03:12:42;10.60;99.90
59007;DHT22;44792;52.760;6.726;2024-03-22T03:15:08;10.60;99.90
59007;DHT22;44792;52.760;6.726;2024-03-22T03:17:34;10.60;99.90
59007;DHT22;44792;52.760;6.726;2024-03-22T03:19:59;10.60;99.90
59007;DHT22;44792;52.760;6.726;2024-03-22T03:22:25;10.70;99.90
59007;DHT22;44792;52.760;6.726;2024-03-22T03:24:51;10.60;99.90
59007;DHT22;44792;52.760;6.726;2024-03-22T03:27:16;10.70;99.90
59007;DHT22;44792;52.760;6.726;2024-03-22T03:29:42;10.70;99.90
59007;DHT22;44792;52.760;6.726;2024-03-22T03:32:08;10.70;99.90
59007;DHT22;44792;52.760;6.726;2024-03-22T03:34:33;10.70;99.90
59007;DHT22;44792;52.760;6.726;2024-03-22T03:36:59;10.70;99.90
59007;DHT22;44792;52.760;6.726;2024-03-22T03:39:27;10.80;99.90
59007;DHT22;44792;52.760;6.726;2024-03-22T03:41:54;10.80;99.90
59007;DHT22;44792;52.760;6.726;2024-03-22T03:44:20;10.80;99.90
59007;DHT22;44792;52.760;6.726;2024-03-22T03:46:46;10.80;99.90
59007;DHT22;44792;52.760;6.726;2024-03-22T03:49:11;10.80;99.90
59007;DHT22;44792;52.760;6.726;2024-03-22T03:51:37;10.80;99.90
59007;DHT22;44792;52.760;6.726;2024-03-22T03:54:03;10.80;99.90
59007;DHT22;44792;52.760;6.726;2024-03-22T03:56:29;10.80;99.90
59007;DHT22;44792;52.760;6.726;2024-03-22T03:58:55;10.80;99.90
59007;DHT22;44792;52.760;6.726;2024-03-22T04:01:21;10.80;99.90
59007;DHT22;44792;52.760;6.726;2024-03-22T04:03:48;10.80;99.90
59007;DHT22;44792;52.760;6.726;2024-03-22T04:06:14;10.80;99.90
59007;DHT22;44792;52.760;6.726;2024-03-22T04:08:40;10.80;99.90
59007;DHT22;44792;52.760;6.726;2024-03-22T04:11:05;10.80;99.90
59007;DHT22;44792;52.760;6.726;2024-03-22T04:13:31;10.80;99.90
59007;DHT22;44792;52.760;6.726;2024-03-22T04:15:59;10.80;99.90
59007;DHT22;44792;52.760;6.726;2024-03-22T04:18:25;10.80;99.90
59007;DHT22;44792;52.760;6.726;2024-03-22T04:20:58;10.80;99.90
59007;DHT22;44792;52.760;6.726;2024-03-22T04:23:24;10.90;99.90
59007;DHT22;44792;52.760;6.726;2024-03-22T04:25:59;10.90;99.90
59007;DHT22;44792;52.760;6.726;2024-03-22T04:28:26;10.90;99.90
59007;DHT22;44792;52.760;6.726;2024-03-22T04:30:59;10.90;99.90
59007;DHT22;44792;52.760;6.726;2024-03-22T04:33:26;10.90;99.90
59007;DHT22;44792;52.760;6.726;2024-03-22T04:35:51;10.90;99.90
59007;DHT22;44792;52.760;6.726;2024-03-22T04:38:18;10.90;99.90
59007;DHT22;44792;52.760;6.726;2024-03-22T04:40:43;10.80;99.90
59007;DHT22;44792;52.760;6.726;2024-03-22T04:43:09;10.90;99.90
59007;DHT22;44792;52.760;6.726;2024-03-22T04:45:35;10.90;99.90
59007;DHT22;44792;52.760;6.726;2024-03-22T04:48:04;10.90;99.90
59007;DHT22;44792;52.760;6.726;2024-03-22T04:50:31;10.90;99.90
59007;DHT22;44792;52.760;6.726;2024-03-22T04:52:57;11.00;99.90
59007;DHT22;44792;52.760;6.726;2024-03-22T04:55:22;10.90;99.90
59007;DHT22;44792;52.760;6.726;2024-03-22T04:57:49;11.00;99.90
59007;DHT22;44792;52.760;6.726;2024-03-22T05:00:15;10.90;99.90
59007;DHT22;44792;52.760;6.726;2024-03-22T05:02:41;10.90;99.90
59007;DHT22;44792;52.760;6.726;2024-03-22T05:05:06;11.00;99.90
59007;DHT22;44792;52.760;6.726;2024-03-22T05:07:35;10.90;99.90
59007;DHT22;44792;52.760;6.726;2024-03-22T05:10:02;11.00;99.90
59007;DHT22;44792;52.760;6.726;2024-03-22T05:12:28;11.00;99.90
59007;DHT22;44792;52.760;6.726;2024-03-22T05:14:55;11.00;99.90
59007;DHT22;44792;52.760;6.726;2024-03-22T05:17:20;11.00;99.90
59007;DHT22;44792;52.760;6.726;2024-03-22T05:19:46;11.00;99.90
59007;DHT22;44792;52.760;6.726;2024-03-22T05:22:12;10.90;99.90
59007;DHT22;44792;52.760;6.726;2024-03-22T05:24:38;11.00;99.90
59007;DHT22;44792;52.760;6.726;2024-03-22T05:27:04;11.00;99.90
59007;DHT22;44792;52.760;6.726;2024-03-22T05:29:29;11.00;99.90
59007;DHT22;44792;52.760;6.726;2024-03-22T05:31:55;11.00;99.90
59007;DHT22;44792;52.760;6.726;2024-03-22T05:34:21;11.00;99.90
59007;DHT22;44792;52.760;6.726;2024-03-22T05:36:46;11.00;99.90
59007;DHT22;44792;52.760;6.726;2024-03-22T05:39:12;11.00;99.90
59007;DHT22;44792;52.760;6.726;2024-03-22T05:41:38;11.00;99.90
59007;DHT22;44792;52.760;6.726;2024-03-22T05:44:04;11.00;99.90
59007;DHT22;44792;52.760;6.726;2024-03-22T05:46:30;11.00;99.90
59007;DHT22;44792;52.760;6.726;2024-03-22T05:48:57;11.00;99.90
59007;DHT22;44792;52.760;6.726;2024-03-22T05:51:26;11.00;99.90
59007;DHT22;44792;52.760;6.726;2024-03-22T05:53:52;11.00;99.90
59007;DHT22;44792;52.760;6.726;2024-03-22T05:56:18;11.00;99.90
59007;DHT22;44792;52.760;6.726;2024-03-22T05:58:44;11.00;99.90
59007;DHT22;44792;52.760;6.726;2024-03-22T06:01:10;10.90;99.90
59007;DHT22;44792;52.760;6.726;2024-03-22T06:03:35;10.90;99.90
59007;DHT22;44792;52.760;6.726;2024-03-22T06:06:01;10.90;99.90
59007;DHT22;44792;52.760;6.726;2024-03-22T06:08:27;11.00;99.90
59007;DHT22;44792;52.760;6.726;2024-03-22T06:10:54;10.90;99.90
59007;DHT22;44792;52.760;6.726;2024-03-22T06:13:20;10.90;99.90
59007;DHT22;44792;52.760;6.726;2024-03-22T06:15:48;10.90;99.90
59007;DHT22;44792;52.760;6.726;2024-03-22T06:18:14;10.90;99.90
59007;DHT22;44792;52.760;6.726;2024-03-22T06:20:39;11.00;99.90
59007;DHT22;44792;52.760;6.726;2024-03-22T06:23:05;10.80;99.90
59007;DHT22;44792;52.760;6.726;2024-03-22T06:25:31;10.90;99.90
59007;DHT22;44792;52.760;6.726;2024-03-22T06:27:57;10.90;99.90
59007;DHT22;44792;52.760;6.726;2024-03-22T06:30:22;10.90;99.90
59007;DHT22;44792;52.760;6.726;2024-03-22T06:32:48;10.90;99.90
59007;DHT22;44792;52.760;6.726;2024-03-22T06:35:14;10.90;99.90
59007;DHT22;44792;52.760;6.726;2024-03-22T06:37:40;10.90;99.90
59007;DHT22;44792;52.760;6.726;2024-03-22T06:40:09;10.90;99.90
59007;DHT22;44792;52.760;6.726;2024-03-22T06:42:35;10.80;99.90
59007;DHT22;44792;52.760;6.726;2024-03-22T06:45:02;10.80;99.90
59007;DHT22;44792;52.760;6.726;2024-03-22T06:47:28;10.90;99.90
59007;DHT22;44792;52.760;6.726;2024-03-22T06:49:53;10.80;99.90
59007;DHT22;44792;52.760;6.726;2024-03-22T06:52:19;10.90;99.90
59007;DHT22;44792;52.760;6.726;2024-03-22T06:54:46;10.80;99.90
59007;DHT22;44792;52.760;6.726;2024-03-22T06:57:11;10.80;99.90
59007;DHT22;44792;52.760;6.726;2024-03-22T06:59:37;10.80;99.90
59007;DHT22;44792;52.760;6.726;2024-03-22T07:02:03;10.80;99.90
59007;DHT22;44792;52.760;6.726;2024-03-22T07:04:29;10.80;99.90
59007;DHT22;44792;52.760;6.726;2024-03-22T07:06:55;10.80;99.90
59007;DHT22;44792;52.760;6.726;2024-03-22T07:09:20;10.80;99.90
59007;DHT22;44792;52.760;6.726;2024-03-22T07:11:46;10.80;99.90
59007;DHT22;44792;52.760;6.726;2024-03-22T07:14:12;10.80;99.90
59007;DHT22;44792;52.760;6.726;2024-03-22T07:16:38;10.80;99.90
59007;DHT22;44792;52.760;6.726;2024-03-22T07:19:04;10.80;99.90
59007;DHT22;44792;52.760;6.726;2024-03-22T07:21:30;10.80;99.90
59007;DHT22;44792;52.760;6.726;2024-03-22T07:23:56;10.80;99.90
59007;DHT22;44792;52.760;6.726;2024-03-22T07:26:22;10.80;99.90
59007;DHT22;44792;52.760;6.726;2024-03-22T07:28:47;10.80;99.90
59007;DHT22;44792;52.760;6.726;2024-03-22T07:31:13;10.80;99.90
59007;DHT22;44792;52.760;6.726;2024-03-22T07:33:39;10.90;99.90
59007;DHT22;44792;52.760;6.726;2024-03-22T07:36:06;10.90;99.90
59007;DHT22;44792;52.760;6.726;2024-03-22T07:38:31;10.90;99.90
59007;DHT22;44792;52.760;6.726;2024-03-22T07:40:57;10.90;99.90
59007;DHT22;44792;52.760;6.726;2024-03-22T07:43:23;10.80;99.90
59007;DHT22;44792;52.760;6.726;2024-03-22T07:45:49;10.80;99.90
59007;DHT22;44792;52.760;6.726;2024-03-22T07:48:15;10.80;99.90
59007;DHT22;44792;52.760;6.726;2024-03-22T07:50:41;10.90;99.90
59007;DHT22;44792;52.760;6.726;2024-03-22T07:53:07;10.90;99.90
59007;DHT22;44792;52.760;6.726;2024-03-22T07:55:32;10.90;99.90
59007;DHT22;44792;52.760;6.726;2024-03-22T07:57:58;10.90;99.90
59007;DHT22;44792;52.760;6.726;2024-03-22T08:00:24;10.90;99.90
59007;DHT22;44792;52.760;6.726;2024-03-22T08:02:52;10.90;99.90
59007;DHT22;44792;52.760;6.726;2024-03-22T08:05:18;10.90;99.90
59007;DHT22;44792;52.760;6.726;2024-03-22T08:07:45;10.90;99.90
59007;DHT22;44792;52.760;6.726;2024-03-22T08:10:11;10.90;99.90
59007;DHT22;44792;52.760;6.726;2024-03-22T08:12:36;10.90;99.90
59007;DHT22;44792;52.760;6.726;2024-03-22T08:15:02;10.90;99.90
59007;DHT22;44792;52.760;6.726;2024-03-22T08:17:28;10.90;99.90
59007;DHT22;44792;52.760;6.726;2024-03-22T08:19:54;10.90;99.90
59007;DHT22;44792;52.760;6.726;2024-03-22T08:22:19;11.00;99.90
59007;DHT22;44792;52.760;6.726;2024-03-22T08:24:45;11.00;99.90
59007;DHT22;44792;52.760;6.726;2024-03-22T08:27:11;11.00;99.90
59007;DHT22;44792;52.760;6.726;2024-03-22T08:29:38;11.00;99.90
59007;DHT22;44792;52.760;6.726;2024-03-22T08:32:04;11.00;99.90
59007;DHT22;44792;52.760;6.726;2024-03-22T08:34:33;11.00;99.90
59007;DHT22;44792;52.760;6.726;2024-03-22T08:36:59;11.00;99.90
59007;DHT22;44792;52.760;6.726;2024-03-22T08:39:24;11.00;99.90
59007;DHT22;44792;52.760;6.726;2024-03-22T08:41:51;11.00;99.90
59007;DHT22;44792;52.760;6.726;2024-03-22T08:44:17;11.00;99.90
59007;DHT22;44792;52.760;6.726;2024-03-22T08:46:43;11.00;99.90
59007;DHT22;44792;52.760;6.726;2024-03-22T08:49:09;11.00;99.90
59007;DHT22;44792;52.760;6.726;2024-03-22T08:51:34;11.00;99.90
59007;DHT22;44792;52.760;6.726;2024-03-22T08:54:00;11.00;99.90
59007;DHT22;44792;52.760;6.726;2024-03-22T08:56:26;11.00;99.90
59007;DHT22;44792;52.760;6.726;2024-03-22T08:58:52;11.00;99.90
59007;DHT22;44792;52.760;6.726;2024-03-22T09:01:18;11.10;99.90
59007;DHT22;44792;52.760;6.726;2024-03-22T09:03:43;11.00;99.90
59007;DHT22;44792;52.760;6.726;2024-03-22T09:06:12;11.00;99.90
59007;DHT22;44792;52.760;6.726;2024-03-22T09:08:38;11.00;99.90
59007;DHT22;44792;52.760;6.726;2024-03-22T09:11:04;11.10;99.90
59007;DHT22;44792;52.760;6.726;2024-03-22T09:13:30;11.00;99.90
59007;DHT22;44792;52.760;6.726;2024-03-22T09:16:00;10.90;99.90
59007;DHT22;44792;52.760;6.726;2024-03-22T09:18:26;11.00;99.90
59007;DHT22;44792;52.760;6.726;2024-03-22T09:20:53;11.00;99.90
59007;DHT22;44792;52.760;6.726;2024-03-22T09:23:19;10.90;99.90
59007;DHT22;44792;52.760;6.726;2024-03-22T09:25:46;10.90;99.90
59007;DHT22;44792;52.760;6.726;2024-03-22T09:28:13;10.90;99.90
59007;DHT22;44792;52.760;6.726;2024-03-22T09:30:41;10.90;99.90
59007;DHT22;44792;52.760;6.726;2024-03-22T09:33:08;10.90;99.90
59007;DHT22;44792;52.760;6.726;2024-03-22T09:35:34;10.90;99.90
59007;DHT22;44792;52.760;6.726;2024-03-22T09:38:01;10.90;99.90
59007;DHT22;44792;52.760;6.726;2024-03-22T09:40:28;10.90;99.90
59007;DHT22;44792;52.760;6.726;2024-03-22T09:42:53;10.90;99.90
59007;DHT22;44792;52.760;6.726;2024-03-22T09:45:19;10.90;99.90
59007;DHT22;44792;52.760;6.726;2024-03-22T09:47:48;10.80;99.90
59007;DHT22;44792;52.760;6.726;2024-03-22T09:50:14;10.90;99.90
59007;DHT22;44792;52.760;6.726;2024-03-22T09:52:41;10.90;99.90
59007;DHT22;44792;52.760;6.726;2024-03-22T09:55:08;10.90;99.90
59007;DHT22;44792;52.760;6.726;2024-03-22T09:57:37;10.90;99.90
59007;DHT22;44792;52.760;6.726;2024-03-22T10:00:06;10.80;99.90
59007;DHT22;44792;52.760;6.726;2024-03-22T10:02:33;10.90;99.90
59007;DHT22;44792;52.760;6.726;2024-03-22T10:04:59;10.90;99.90
59007;DHT22;44792;52.760;6.726;2024-03-22T10:07:26;10.90;99.90
59007;DHT22;44792;52.760;6.726;2024-03-22T10:09:52;10.90;99.90
59007;DHT22;44792;52.760;6.726;2024-03-22T10:12:17;11.00;99.90
59007;DHT22;44792;52.760;6.726;2024-03-22T10:14:43;10.90;99.90
59007;DHT22;44792;52.760;6.726;2024-03-22T10:17:09;10.90;99.90
59007;DHT22;44792;52.760;6.726;2024-03-22T10:19:36;11.00;99.90
59007;DHT22;44792;52.760;6.726;2024-03-22T10:22:04;11.00;99.90
59007;DHT22;44792;52.760;6.726;2024-03-22T10:24:33;11.00;99.90
59007;DHT22;44792;52.760;6.726;2024-03-22T10:26:59;10.90;99.90
59007;DHT22;44792;52.760;6.726;2024-03-22T10:29:26;10.90;99.90
59007;DHT22;44792;52.760;6.726;2024-03-22T10:31:53;10.90;99.90
59007;DHT22;44792;52.760;6.726;2024-03-22T10:34:21;10.90;99.90
59007;DHT22;44792;52.760;6.726;2024-03-22T10:36:46;10.90;99.90
59007;DHT22;44792;52.760;6.726;2024-03-22T10:39:19;11.00;99.90
59007;DHT22;44792;52.760;6.726;2024-03-22T10:41:47;10.90;99.90
59007;DHT22;44792;52.760;6.726;2024-03-22T10:44:14;10.90;99.90
59007;DHT22;44792;52.760;6.726;2024-03-22T10:46:45;10.90;99.90
59007;DHT22;44792;52.760;6.726;2024-03-22T10:49:15;10.90;99.90
59007;DHT22;44792;52.760;6.726;2024-03-22T10:51:42;10.90;99.90
59007;DHT22;44792;52.760;6.726;2024-03-22T10:54:09;11.00;99.90
59007;DHT22;44792;52.760;6.726;2024-03-22T10:56:35;11.00;99.90
59007;DHT22;44792;52.760;6.726;2024-03-22T10:59:04;10.90;99.90
59007;DHT22;44792;52.760;6.726;2024-03-22T11:01:31;11.00;99.90
59007;DHT22;44792;52.760;6.726;2024-03-22T11:04:06;11.00;99.90
59007;DHT22;44792;52.760;6.726;2024-03-22T11:06:37;11.00;99.90
59007;DHT22;44792;52.760;6.726;2024-03-22T11:09:03;11.00;99.90
59007;DHT22;44792;52.760;6.726;2024-03-22T11:11:34;11.00;99.90
59007;DHT22;44792;52.760;6.726;2024-03-22T11:14:03;11.00;99.90
59007;DHT22;44792;52.760;6.726;2024-03-22T11:16:30;11.00;99.90
59007;DHT22;44792;52.760;6.726;2024-03-22T11:18:55;11.00;99.90
59007;DHT22;44792;52.760;6.726;2024-03-22T11:21:21;11.10;99.90
59007;DHT22;44792;52.760;6.726;2024-03-22T11:23:47;11.10;99.90
59007;DHT22;44792;52.760;6.726;2024-03-22T11:26:13;11.10;99.90
59007;DHT22;44792;52.760;6.726;2024-03-22T11:28:39;11.00;99.90
59007;DHT22;44792;52.760;6.726;2024-03-22T11:31:05;11.10;99.90
59007;DHT22;44792;52.760;6.726;2024-03-22T11:33:31;11.10;99.90
59007;DHT22;44792;52.760;6.726;2024-03-22T11:36:03;11.10;99.90
59007;DHT22;44792;52.760;6.726;2024-03-22T11:38:30;11.00;99.90
59007;DHT22;44792;52.760;6.726;2024-03-22T11:40:57;11.10;99.90
59007;DHT22;44792;52.760;6.726;2024-03-22T11:43:26;11.00;99.90
59007;DHT22;44792;52.760;6.726;2024-03-22T11:45:54;11.00;99.90
59007;DHT22;44792;52.760;6.726;2024-03-22T11:48:20;11.00;99.90
59007;DHT22;44792;52.760;6.726;2024-03-22T11:50:46;11.10;99.90
59007;DHT22;44792;52.760;6.726;2024-03-22T11:53:12;11.10;99.90
59007;DHT22;44792;52.760;6.726;2024-03-22T11:55:37;11.10;99.90
59007;DHT22;44792;52.760;6.726;2024-03-22T11:58:03;11.10;99.90
59007;DHT22;44792;52.760;6.726;2024-03-22T12:00:29;11.20;99.90
59007;DHT22;44792;52.760;6.726;2024-03-22T12:02:55;11.20;99.90
59007;DHT22;44792;52.760;6.726;2024-03-22T12:05:21;11.20;99.90
59007;DHT22;44792;52.760;6.726;2024-03-22T12:07:47;11.20;99.90
59007;DHT22;44792;52.760;6.726;2024-03-22T12:10:12;11.20;99.90
59007;DHT22;44792;52.760;6.726;2024-03-22T12:12:38;11.10;99.90
59007;DHT22;44792;52.760;6.726;2024-03-22T12:15:05;11.20;99.90
59007;DHT22;44792;52.760;6.726;2024-03-22T12:17:31;11.20;99.90
59007;DHT22;44792;52.760;6.726;2024-03-22T12:19:57;11.10;99.90
59007;DHT22;44792;52.760;6.726;2024-03-22T12:22:23;11.10;99.90
59007;DHT22;44792;52.760;6.726;2024-03-22T12:24:51;11.10;99.90
59007;DHT22;44792;52.760;6.726;2024-03-22T12:27:16;11.10;99.90
59007;DHT22;44792;52.760;6.726;2024-03-22T12:29:42;11.10;99.90
59007;DHT22;44792;52.760;6.726;2024-03-22T12:32:08;11.10;99.90
59007;DHT22;44792;52.760;6.726;2024-03-22T12:34:34;11.10;99.90
59007;DHT22;44792;52.760;6.726;2024-03-22T12:37:00;11.20;99.90
59007;DHT22;44792;52.760;6.726;2024-03-22T12:39:25;11.10;99.90
59007;DHT22;44792;52.760;6.726;2024-03-22T12:41:51;11.10;99.90
59007;DHT22;44792;52.760;6.726;2024-03-22T12:44:17;11.00;99.90
59007;DHT22;44792;52.760;6.726;2024-03-22T12:46:45;11.10;99.90
59007;DHT22;44792;52.760;6.726;2024-03-22T12:49:11;11.10;99.90
59007;DHT22;44792;52.760;6.726;2024-03-22T12:51:37;11.10;99.90
59007;DHT22;44792;52.760;6.726;2024-03-22T12:54:04;11.10;99.90
59007;DHT22;44792;52.760;6.726;2024-03-22T12:56:33;11.10;99.90
59007;DHT22;44792;52.760;6.726;2024-03-22T12:58:59;11.10;99.90
59007;DHT22;44792;52.760;6.726;2024-03-22T13:01:25;11.20;99.90
59007;DHT22;44792;52.760;6.726;2024-03-22T13:03:51;11.10;99.90
59007;DHT22;44792;52.760;6.726;2024-03-22T13:06:16;11.20;99.90
59007;DHT22;44792;52.760;6.726;2024-03-22T13:08:42;11.20;99.90
59007;DHT22;44792;52.760;6.726;2024-03-22T13:11:08;11.20;99.90
59007;DHT22;44792;52.760;6.726;2024-03-22T13:13:36;11.20;99.90
59007;DHT22;44792;52.760;6.726;2024-03-22T13:16:02;11.20;99.90
59007;DHT22;44792;52.760;6.726;2024-03-22T13:18:29;11.20;99.90
59007;DHT22;44792;52.760;6.726;2024-03-22T13:20:55;11.10;99.90
59007;DHT22;44792;52.760;6.726;2024-03-22T13:23:21;11.10;99.90
59007;DHT22;44792;52.760;6.726;2024-03-22T13:25:47;11.00;99.90
59007;DHT22;44792;52.760;6.726;2024-03-22T13:28:12;11.10;99.90
59007;DHT22;44792;52.760;6.726;2024-03-22T13:30:38;11.00;99.90
59007;DHT22;44792;52.760;6.726;2024-03-22T13:33:04;11.00;99.90
59007;DHT22;44792;52.760;6.726;2024-03-22T13:35:30;11.00;99.90
59007;DHT22;44792;52.760;6.726;2024-03-22T13:37:56;11.00;99.90
59007;DHT22;44792;52.760;6.726;2024-03-22T13:40:21;10.90;99.90
59007;DHT22;44792;52.760;6.726;2024-03-22T13:42:47;10.90;99.90
59007;DHT22;44792;52.760;6.726;2024-03-22T13:45:13;10.90;99.90
59007;DHT22;44792;52.760;6.726;2024-03-22T13:47:38;10.90;99.90
59007;DHT22;44792;52.760;6.726;2024-03-22T13:50:07;10.80;99.90
59007;DHT22;44792;52.760;6.726;2024-03-22T13:52:34;10.90;99.90
59007;DHT22;44792;52.760;6.726;2024-03-22T13:55:01;10.90;99.90
59007;DHT22;44792;52.760;6.726;2024-03-22T13:57:27;10.80;99.90
59007;DHT22;44792;52.760;6.726;2024-03-22T13:59:53;10.80;99.90
59007;DHT22;44792;52.760;6.726;2024-03-22T14:02:19;10.80;99.90
59007;DHT22;44792;52.760;6.726;2024-03-22T14:04:45;10.90;99.90
59007;DHT22;44792;52.760;6.726;2024-03-22T14:07:11;10.80;99.90
59007;DHT22;44792;52.760;6.726;2024-03-22T14:09:37;10.80;99.90
59007;DHT22;44792;52.760;6.726;2024-03-22T14:12:03;10.90;99.90
59007;DHT22;44792;52.760;6.726;2024-03-22T14:14:28;10.90;99.90
59007;DHT22;44792;52.760;6.726;2024-03-22T14:16:55;10.90;99.90
59007;DHT22;44792;52.760;6.726;2024-03-22T14:19:20;11.00;99.90
59007;DHT22;44792;52.760;6.726;2024-03-22T14:21:46;11.10;99.90
59007;DHT22;44792;52.760;6.726;2024-03-22T14:24:12;11.00;99.90
59007;DHT22;44792;52.760;6.726;2024-03-22T14:26:38;11.10;99.90
59007;DHT22;44792;52.760;6.726;2024-03-22T14:29:17;11.10;99.90
59007;DHT22;44792;52.760;6.726;2024-03-22T14:31:43;11.10;99.90
59007;DHT22;44792;52.760;6.726;2024-03-22T14:34:09;11.20;99.90
59007;DHT22;44792;52.760;6.726;2024-03-22T14:36:35;11.20;99.90
59007;DHT22;44792;52.760;6.726;2024-03-22T14:39:01;11.20;99.90
59007;DHT22;44792;52.760;6.726;2024-03-22T14:41:32;11.20;99.90
59007;DHT22;44792;52.760;6.726;2024-03-22T14:43:57;11.20;99.90
59007;DHT22;44792;52.760;6.726;2024-03-22T14:46:23;11.20;99.90
59007;DHT22;44792;52.760;6.726;2024-03-22T14:48:54;11.30;99.90
59007;DHT22;44792;52.760;6.726;2024-03-22T14:51:20;11.20;99.90
59007;DHT22;44792;52.760;6.726;2024-03-22T14:53:45;11.20;99.90
59007;DHT22;44792;52.760;6.726;2024-03-22T14:56:14;11.20;99.90
59007;DHT22;44792;52.760;6.726;2024-03-22T14:58:40;11.20;99.90
59007;DHT22;44792;52.760;6.726;2024-03-22T15:01:06;11.20;99.90
59007;DHT22;44792;52.760;6.726;2024-03-22T15:03:32;11.20;99.90
59007;DHT22;44792;52.760;6.726;2024-03-22T15:05:59;11.20;99.90
59007;DHT22;44792;52.760;6.726;2024-03-22T15:08:26;11.30;99.90
59007;DHT22;44792;52.760;6.726;2024-03-22T15:10:52;11.20;99.90
59007;DHT22;44792;52.760;6.726;2024-03-22T15:13:18;11.20;99.90
59007;DHT22;44792;52.760;6.726;2024-03-22T15:15:58;11.30;99.90
59007;DHT22;44792;52.760;6.726;2024-03-22T15:18:25;11.20;99.90
59007;DHT22;44792;52.760;6.726;2024-03-22T15:20:52;11.30;99.90
59007;DHT22;44792;52.760;6.726;2024-03-22T15:23:18;11.30;99.90